createdAt,value
2023-12-23T00:01:10.696Z,73.93
2023-12-23T00:03:49.693Z,73.97
2023-12-23T00:06:18.458Z,73.98
2023-12-23T00:08:46.574Z,74.10
2023-12-23T00:11:14.805Z,74.21
2023-12-23T00:13:42.778Z,74.59
2023-12-23T00:16:11.006Z,74.76
2023-12-23T00:18:39.487Z,74.79
2023-12-23T00:21:08.493Z,74.91
2023-12-23T00:23:36.734Z,75.01
2023-12-23T00:26:05.631Z,75.09
2023-12-23T00:28:33.823Z,75.19
2023-12-23T00:31:01.789Z,75.32
2023-12-23T00:33:29.704Z,75.44
2023-12-23T00:35:58.721Z,75.49
2023-12-23T00:38:26.695Z,75.55
2023-12-23T00:40:55.658Z,75.55
2023-12-23T00:43:23.507Z,75.65
2023-12-23T00:45:51.677Z,75.71
2023-12-23T00:48:19.633Z,75.61
2023-12-23T00:50:47.688Z,75.59
2023-12-23T00:53:17.700Z,75.67
2023-12-23T00:55:45.997Z,75.63
2023-12-23T00:58:14.676Z,75.57
2023-12-23T01:00:42.775Z,75.62
2023-12-23T01:03:11.116Z,75.85
2023-12-23T01:05:39.830Z,75.89
2023-12-23T01:08:07.834Z,75.81
2023-12-23T01:10:36.421Z,75.88
2023-12-23T01:13:04.693Z,76.03
2023-12-23T01:15:32.861Z,76.15
2023-12-23T01:18:01.102Z,76.38
2023-12-23T01:20:30.040Z,76.81
2023-12-23T01:22:57.967Z,77.11
2023-12-23T01:25:26.001Z,77.28
2023-12-23T01:27:54.323Z,77.37
2023-12-23T01:30:24.371Z,77.70
2023-12-23T01:32:52.490Z,78.13
2023-12-23T01:35:20.683Z,78.59
2023-12-23T01:37:49.047Z,78.86
2023-12-23T01:40:17.462Z,79.10
2023-12-23T01:42:45.886Z,79.07
2023-12-23T01:45:14.265Z,79.05
2023-12-23T01:47:45.261Z,78.91
2023-12-23T01:50:14.917Z,78.93
2023-12-23T01:52:43.689Z,78.99
2023-12-23T01:55:12.347Z,78.96
2023-12-23T01:57:41.768Z,79.07
2023-12-23T02:00:11.612Z,79.16
2023-12-23T02:02:41.432Z,79.24
2023-12-23T02:05:11.421Z,79.29
2023-12-23T02:07:39.938Z,79.31
2023-12-23T02:10:08.331Z,79.47
2023-12-23T02:13:12.777Z,79.60
2023-12-23T02:15:45.229Z,79.80
2023-12-23T02:18:14.998Z,80.27
2023-12-23T02:20:43.845Z,80.57
2023-12-23T02:23:12.285Z,80.78
2023-12-23T02:25:40.943Z,80.83
2023-12-23T02:28:12.244Z,80.97
2023-12-23T02:30:44.474Z,81.15
2023-12-23T02:33:13.095Z,81.31
2023-12-23T02:35:41.374Z,81.32
2023-12-23T02:38:10.660Z,81.43
2023-12-23T02:40:38.827Z,81.46
2023-12-23T02:43:07.185Z,81.49
2023-12-23T02:45:35.943Z,81.53
2023-12-23T02:48:07.260Z,81.54
2023-12-23T02:50:35.864Z,81.57
2023-12-23T02:53:04.822Z,81.51
2023-12-23T02:55:35.017Z,81.44
2023-12-23T02:58:03.324Z,81.48
2023-12-23T03:00:31.376Z,81.56
2023-12-23T03:02:59.455Z,81.60
2023-12-23T03:05:27.807Z,81.52
2023-12-23T03:07:56.411Z,81.57
2023-12-23T03:10:25.880Z,81.58
2023-12-23T03:12:54.055Z,81.67
2023-12-23T03:15:22.130Z,81.79
2023-12-23T03:17:50.263Z,82.09
2023-12-23T03:20:19.002Z,82.23
2023-12-23T03:22:47.800Z,82.23
2023-12-23T03:25:15.779Z,82.33
2023-12-23T03:27:43.869Z,82.58
2023-12-23T03:30:12.739Z,82.59
2023-12-23T03:32:40.766Z,82.62
2023-12-23T03:35:09.437Z,82.94
2023-12-23T03:37:38.019Z,83.19
2023-12-23T03:40:08.358Z,83.28
2023-12-23T03:42:39.776Z,83.28
2023-12-23T03:45:08.575Z,83.30
2023-12-23T03:47:36.918Z,83.55
2023-12-23T03:50:05.499Z,83.56
2023-12-23T03:52:33.556Z,83.68
2023-12-23T03:55:01.981Z,83.75
2023-12-23T03:57:30.234Z,83.77
2023-12-23T03:59:58.169Z,83.77
2023-12-23T04:02:26.207Z,83.69
2023-12-23T04:04:54.224Z,83.82
2023-12-23T04:07:22.110Z,83.81
2023-12-23T04:09:50.874Z,83.72
2023-12-23T04:12:19.158Z,83.85
2023-12-23T04:14:47.490Z,83.81
2023-12-23T04:17:15.743Z,83.79
2023-12-23T04:19:44.192Z,83.64
2023-12-23T04:22:12.231Z,83.61
2023-12-23T04:24:40.262Z,83.64
2023-12-23T04:27:08.574Z,83.66
2023-12-23T04:29:36.694Z,83.80
2023-12-23T04:32:05.563Z,83.64
2023-12-23T04:34:34.731Z,83.54
2023-12-23T04:37:02.586Z,83.67
2023-12-23T04:39:31.145Z,83.55
2023-12-23T04:41:59.896Z,83.41
2023-12-23T04:44:29.212Z,83.21
2023-12-23T04:46:58.295Z,83.10
2023-12-23T04:49:26.854Z,82.97
2023-12-23T04:51:54.936Z,82.65
2023-12-23T04:54:23.190Z,82.44
2023-12-23T04:56:51.753Z,82.28
2023-12-23T04:59:20.192Z,82.26
2023-12-23T05:01:48.603Z,82.24
2023-12-23T05:04:17.245Z,82.02
2023-12-23T05:06:47.550Z,81.84
2023-12-23T05:09:15.956Z,81.85
2023-12-23T05:11:44.034Z,81.82
2023-12-23T05:14:12.540Z,81.82
2023-12-23T05:16:40.534Z,81.81
2023-12-23T05:19:09.006Z,81.87
2023-12-23T05:21:37.686Z,81.66
2023-12-23T05:24:06.003Z,81.52
2023-12-23T05:26:34.193Z,81.37
2023-12-23T05:29:02.683Z,81.40
2023-12-23T05:31:31.232Z,81.29
2023-12-23T05:33:59.508Z,81.25
2023-12-23T05:36:27.899Z,80.96
2023-12-23T05:38:55.970Z,80.66
2023-12-23T05:41:24.359Z,80.58
2023-12-23T05:43:52.696Z,80.28
2023-12-23T05:46:20.937Z,80.08
2023-12-23T05:48:49.083Z,80.04
2023-12-23T05:51:17.165Z,80.04
2023-12-23T05:53:45.066Z,79.71
2023-12-23T05:56:13.579Z,79.68
2023-12-23T05:58:41.621Z,79.63
2023-12-23T06:01:10.936Z,79.63
2023-12-23T06:03:39.318Z,79.71
2023-12-23T06:06:08.178Z,79.66
2023-12-23T06:08:36.730Z,79.55
2023-12-23T06:11:05.996Z,79.52
2023-12-23T06:13:34.833Z,79.34
2023-12-23T06:16:08.599Z,79.39
2023-12-23T06:18:36.903Z,79.37
2023-12-23T06:21:04.832Z,79.32
2023-12-23T06:23:35.375Z,79.10
2023-12-23T06:26:04.427Z,78.97
2023-12-23T06:28:32.372Z,78.91
2023-12-23T06:31:00.509Z,78.95
2023-12-23T06:33:28.545Z,78.93
2023-12-23T06:35:56.528Z,78.88
2023-12-23T06:38:24.558Z,78.93
2023-12-23T06:40:52.697Z,78.81
2023-12-23T06:43:44.723Z,78.85
2023-12-23T06:46:11.889Z,79.07
2023-12-23T06:48:40.411Z,78.90
2023-12-23T06:51:08.875Z,78.89
2023-12-23T06:53:37.025Z,78.73
2023-12-23T06:56:07.041Z,78.88
2023-12-23T06:58:35.483Z,79.38
2023-12-23T07:01:03.710Z,79.23
2023-12-23T07:03:32.056Z,77.58
2023-12-23T07:06:00.405Z,77.31
2023-12-23T07:08:29.033Z,77.35
2023-12-23T07:10:57.519Z,77.26
2023-12-23T07:13:26.092Z,77.23
2023-12-23T07:15:54.174Z,77.06
2023-12-23T07:18:22.441Z,77.11
2023-12-23T07:20:51.030Z,77.07
2023-12-23T07:23:19.279Z,77.14
2023-12-23T07:25:47.200Z,77.15
2023-12-23T07:28:15.224Z,77.08
2023-12-23T07:30:46.483Z,76.89
2023-12-23T07:33:15.113Z,76.55
2023-12-23T07:35:43.553Z,76.51
2023-12-23T07:38:12.015Z,76.56
2023-12-23T07:40:40.766Z,76.59
2023-12-23T07:43:09.253Z,76.34
2023-12-23T07:45:38.555Z,76.25
2023-12-23T07:48:06.723Z,76.20
2023-12-23T07:50:35.581Z,75.96
2023-12-23T07:53:04.373Z,75.98
2023-12-23T07:55:32.994Z,75.75
2023-12-23T07:58:01.144Z,75.65
2023-12-23T08:00:29.258Z,75.50
2023-12-23T08:02:57.335Z,75.37
2023-12-23T08:05:25.591Z,75.35
2023-12-23T08:07:53.868Z,75.42
2023-12-23T08:10:21.838Z,75.24
2023-12-23T08:12:50.039Z,74.98
2023-12-23T08:15:18.165Z,74.76
2023-12-23T08:17:46.365Z,74.70
2023-12-23T08:20:14.523Z,74.47
2023-12-23T08:22:46.162Z,74.33
2023-12-23T08:25:14.637Z,74.16
2023-12-23T08:27:42.756Z,73.69
2023-12-23T08:30:11.170Z,73.67
2023-12-23T08:32:39.322Z,73.66
2023-12-23T08:35:09.687Z,73.62
2023-12-23T08:37:37.822Z,73.29
2023-12-23T08:40:06.634Z,73.35
2023-12-23T08:42:34.624Z,73.43
2023-12-23T08:45:02.708Z,73.46
2023-12-23T08:47:30.858Z,73.65
2023-12-23T08:49:59.033Z,73.31
2023-12-23T08:52:27.496Z,72.96
2023-12-23T08:54:55.515Z,72.73
2023-12-23T08:57:23.924Z,72.82
2023-12-23T08:59:52.331Z,72.67
2023-12-23T09:02:20.691Z,72.42
2023-12-23T09:04:48.686Z,72.02
2023-12-23T09:07:16.662Z,71.79
2023-12-23T09:09:45.027Z,71.59
2023-12-23T09:12:13.004Z,71.28
2023-12-23T09:14:42.245Z,71.33
2023-12-23T09:17:10.635Z,71.64
2023-12-23T09:19:38.561Z,71.50
2023-12-23T09:22:06.468Z,71.84
2023-12-23T09:24:35.853Z,72.08
2023-12-23T09:27:05.041Z,71.72
2023-12-23T09:29:33.684Z,71.26
2023-12-23T09:32:01.849Z,71.17
2023-12-23T09:34:29.887Z,70.60
2023-12-23T09:36:59.388Z,70.21
2023-12-23T09:39:29.823Z,69.73
2023-12-23T09:42:01.004Z,69.56
2023-12-23T09:44:29.164Z,69.45
2023-12-23T09:46:57.382Z,68.41
2023-12-23T09:49:26.260Z,67.51
2023-12-23T09:51:56.756Z,66.92
2023-12-23T09:54:28.546Z,66.96
2023-12-23T09:57:03.576Z,66.71
2023-12-23T09:59:33.435Z,66.71
2023-12-23T10:02:01.781Z,66.34
2023-12-23T10:04:30.468Z,66.07
2023-12-23T10:06:58.400Z,65.81
2023-12-23T10:09:28.531Z,66.43
2023-12-23T10:11:56.868Z,67.28
2023-12-23T10:14:26.830Z,68.06
2023-12-23T10:16:56.005Z,68.40
2023-12-23T10:19:27.315Z,68.79
2023-12-23T10:21:55.407Z,69.15
2023-12-23T10:24:23.387Z,69.39
2023-12-23T10:26:51.838Z,69.61
2023-12-23T10:29:21.786Z,69.85
2023-12-23T10:31:53.871Z,69.97
2023-12-23T10:34:26.404Z,70.09
2023-12-23T10:36:56.806Z,69.85
2023-12-23T10:39:29.719Z,70.09
2023-12-23T10:42:04.839Z,69.77
2023-12-23T10:44:34.917Z,69.42
2023-12-23T10:47:05.654Z,69.39
2023-12-23T10:49:34.578Z,69.36
2023-12-23T10:52:03.368Z,68.78
2023-12-23T10:54:33.470Z,68.29
2023-12-23T10:57:03.107Z,68.46
2023-12-23T10:59:31.171Z,68.74
2023-12-23T11:02:08.823Z,68.87
2023-12-23T11:04:37.239Z,68.72
2023-12-23T11:07:06.416Z,68.88
2023-12-23T11:09:35.348Z,68.75
2023-12-23T11:12:04.170Z,68.81
2023-12-23T11:14:32.467Z,68.56
2023-12-23T11:17:00.808Z,68.56
2023-12-23T11:19:29.056Z,68.62
2023-12-23T11:22:29.251Z,68.34
2023-12-23T11:24:57.646Z,67.64
2023-12-23T11:27:38.733Z,67.23
2023-12-23T11:30:12.116Z,67.73
2023-12-23T11:32:45.241Z,67.83
2023-12-23T11:35:14.171Z,67.63
2023-12-23T11:37:58.680Z,67.49
2023-12-23T11:40:28.128Z,67.59
2023-12-23T11:42:56.838Z,67.53
2023-12-23T11:45:25.534Z,67.30
2023-12-23T11:47:53.594Z,67.14
2023-12-23T11:50:22.020Z,67.38
2023-12-23T11:52:51.721Z,67.28
2023-12-23T11:55:20.791Z,67.30
2023-12-23T11:57:49.397Z,67.34
2023-12-23T12:00:19.656Z,67.05
2023-12-23T12:02:48.035Z,67.20
2023-12-23T12:05:16.269Z,67.05
2023-12-23T12:07:44.595Z,66.41
2023-12-23T12:10:15.051Z,66.80
2023-12-23T12:12:43.756Z,67.10
2023-12-23T12:15:12.255Z,67.35
2023-12-23T12:17:40.462Z,67.81
2023-12-23T12:20:09.658Z,67.99
2023-12-23T12:22:47.666Z,68.05
2023-12-23T12:25:17.824Z,67.97
2023-12-23T12:27:46.340Z,67.94
2023-12-23T12:30:14.637Z,68.24
2023-12-23T12:32:46.631Z,68.62
2023-12-23T12:35:15.847Z,68.56
2023-12-23T12:37:44.800Z,68.37
2023-12-23T12:40:13.885Z,68.44
2023-12-23T12:42:47.021Z,68.47
2023-12-23T12:45:15.726Z,68.67
2023-12-23T12:47:45.370Z,68.59
2023-12-23T12:50:13.442Z,68.64
2023-12-23T12:52:41.978Z,68.50
2023-12-23T12:55:12.868Z,68.35
2023-12-23T12:57:42.073Z,68.24
2023-12-23T13:00:11.284Z,68.47
2023-12-23T13:02:39.867Z,68.30
2023-12-23T13:05:08.000Z,68.15
2023-12-23T13:07:36.203Z,68.13
2023-12-23T13:10:05.294Z,68.37
2023-12-23T13:12:35.215Z,68.68
2023-12-23T13:15:05.751Z,69.02
2023-12-23T13:17:34.762Z,68.84
2023-12-23T13:20:04.528Z,68.69
2023-12-23T13:22:32.750Z,68.42
2023-12-23T13:25:00.945Z,68.29
2023-12-23T13:27:29.195Z,68.53
2023-12-23T13:29:57.788Z,68.59
2023-12-23T13:32:26.346Z,68.76
2023-12-23T13:34:56.399Z,68.67
2023-12-23T13:37:24.352Z,68.42
2023-12-23T13:39:52.221Z,68.44
2023-12-23T13:42:23.514Z,68.20
2023-12-23T13:44:53.139Z,67.54
2023-12-23T13:47:21.699Z,67.37
2023-12-23T13:49:50.219Z,67.62
2023-12-23T13:52:19.634Z,67.78
2023-12-23T13:54:47.720Z,68.20
2023-12-23T13:57:16.084Z,67.24
2023-12-23T13:59:44.466Z,67.33
2023-12-23T14:02:12.336Z,67.42
2023-12-23T14:04:40.843Z,66.95
2023-12-23T14:07:08.895Z,66.82
2023-12-23T14:09:37.090Z,67.26
2023-12-23T14:12:05.593Z,67.48
2023-12-23T14:14:34.016Z,67.78
2023-12-23T14:17:02.019Z,68.31
2023-12-23T14:19:30.675Z,68.50
2023-12-23T14:21:58.997Z,68.62
2023-12-23T14:24:27.013Z,68.58
2023-12-23T14:26:55.298Z,68.69
2023-12-23T14:29:23.353Z,68.80
2023-12-23T14:31:51.493Z,69.11
2023-12-23T14:34:19.396Z,69.24
2023-12-23T14:36:50.046Z,69.28
2023-12-23T14:39:23.704Z,69.39
2023-12-23T14:41:52.811Z,69.48
2023-12-23T14:44:21.086Z,69.92
2023-12-23T14:46:49.337Z,69.86
2023-12-23T14:49:17.628Z,69.95
2023-12-23T14:51:45.768Z,69.69
2023-12-23T14:54:13.663Z,70.65
2023-12-23T14:56:41.783Z,71.67
2023-12-23T14:59:09.919Z,73.25
2023-12-23T15:01:38.160Z,70.15
2023-12-23T15:04:06.383Z,69.33
2023-12-23T15:06:34.832Z,69.05
2023-12-23T15:09:04.108Z,68.94
2023-12-23T15:11:32.348Z,66.93
2023-12-23T15:14:00.387Z,65.12
2023-12-23T15:16:28.369Z,65.77
2023-12-23T15:18:57.402Z,66.98
2023-12-23T15:21:25.666Z,67.35
2023-12-23T15:23:56.566Z,66.53
2023-12-23T15:26:25.961Z,66.19
2023-12-23T15:28:54.580Z,66.29
2023-12-23T15:31:22.822Z,66.57
2023-12-23T15:33:51.783Z,66.49
2023-12-23T15:36:20.452Z,66.78
2023-12-23T15:38:48.636Z,65.52
2023-12-23T15:41:16.929Z,64.32
2023-12-23T15:43:44.844Z,64.14
2023-12-23T15:46:12.836Z,64.02
2023-12-23T15:48:41.193Z,64.68
2023-12-23T15:51:09.364Z,66.08
2023-12-23T15:53:43.746Z,66.75
2023-12-23T15:56:12.163Z,67.69
2023-12-23T15:58:40.237Z,68.95
2023-12-23T16:01:08.847Z,70.87
2023-12-23T16:03:37.272Z,72.87
2023-12-23T16:06:06.276Z,74.23
2023-12-23T16:08:34.544Z,75.63
2023-12-23T16:11:02.852Z,76.68
2023-12-23T16:13:31.005Z,77.46
2023-12-23T16:15:58.988Z,79.99
2023-12-23T16:18:27.045Z,82.12
2023-12-23T16:20:55.629Z,79.46
2023-12-23T16:23:24.303Z,79.47
2023-12-23T16:25:52.785Z,80.06
2023-12-23T16:28:21.184Z,80.60
2023-12-23T16:30:49.374Z,81.12
2023-12-23T16:33:17.838Z,81.43
2023-12-23T16:35:46.631Z,81.87
2023-12-23T16:38:14.659Z,82.20
2023-12-23T16:40:42.773Z,82.47
2023-12-23T16:43:11.044Z,82.87
2023-12-23T16:45:39.232Z,83.25
2023-12-23T16:48:07.899Z,83.57
2023-12-23T16:50:35.980Z,83.85
2023-12-23T16:53:04.165Z,83.90
2023-12-23T16:55:33.246Z,84.23
2023-12-23T16:58:01.955Z,84.25
2023-12-23T17:00:30.148Z,84.39
2023-12-23T17:02:58.118Z,84.52
2023-12-23T17:05:26.546Z,84.70
2023-12-23T17:07:54.531Z,84.91
2023-12-23T17:10:22.765Z,84.91
2023-12-23T17:12:51.123Z,85.15
2023-12-23T17:15:19.294Z,85.20
2023-12-23T17:17:47.438Z,85.29
2023-12-23T17:20:16.291Z,85.38
2023-12-23T17:22:44.920Z,85.50
2023-12-23T17:25:13.178Z,85.52
2023-12-23T17:27:41.459Z,85.36
2023-12-23T17:30:09.896Z,85.52
2023-12-23T17:32:38.100Z,85.39
2023-12-23T17:35:07.402Z,85.50
2023-12-23T17:37:35.403Z,85.51
2023-12-23T17:40:03.588Z,85.47
2023-12-23T17:42:31.757Z,85.66
2023-12-23T17:44:59.914Z,85.68
2023-12-23T17:47:28.189Z,85.63
2023-12-23T17:49:56.154Z,85.63
2023-12-23T17:52:24.163Z,85.64
2023-12-23T17:54:52.038Z,85.67
2023-12-23T17:57:20.176Z,85.58
2023-12-23T17:59:48.778Z,85.63
2023-12-23T18:02:18.314Z,85.70
2023-12-23T18:04:46.519Z,85.69
2023-12-23T18:07:15.128Z,85.62
2023-12-23T18:09:43.544Z,85.66
2023-12-23T18:12:12.188Z,85.53
2023-12-23T18:14:41.518Z,85.53
2023-12-23T18:17:10.375Z,85.55
2023-12-23T18:19:39.990Z,85.49
2023-12-23T18:22:09.170Z,85.31
2023-12-23T18:24:38.245Z,85.11
2023-12-23T18:27:06.982Z,85.35
2023-12-23T18:29:35.243Z,85.29
2023-12-23T18:32:03.771Z,85.24
2023-12-23T18:34:35.037Z,85.10
2023-12-23T18:37:03.921Z,85.09
2023-12-23T18:39:32.042Z,85.11
2023-12-23T18:42:00.025Z,85.10
2023-12-23T18:44:28.273Z,85.00
2023-12-23T18:46:56.575Z,84.93
2023-12-23T18:49:24.493Z,84.97
2023-12-23T18:51:52.765Z,84.98
2023-12-23T18:54:21.178Z,84.98
2023-12-23T18:56:49.384Z,84.94
2023-12-23T18:59:17.872Z,84.97
2023-12-23T19:01:45.962Z,84.92
2023-12-23T19:04:14.164Z,85.03
2023-12-23T19:06:42.569Z,85.03
2023-12-23T19:09:11.044Z,84.91
2023-12-23T19:11:39.244Z,84.85
2023-12-23T19:14:07.302Z,84.82
2023-12-23T19:16:37.619Z,84.89
2023-12-23T19:19:08.584Z,84.78
2023-12-23T19:21:47.559Z,84.75
2023-12-23T19:24:32.170Z,84.77
2023-12-23T19:27:07.465Z,84.70
2023-12-23T19:29:39.246Z,84.59
2023-12-23T19:32:07.956Z,84.56
2023-12-23T19:34:36.305Z,84.53
2023-12-23T19:37:04.598Z,84.42
2023-12-23T19:39:32.535Z,84.53
2023-12-23T19:42:03.125Z,84.40
2023-12-23T19:44:31.250Z,84.41
2023-12-23T19:46:59.224Z,84.41
2023-12-23T19:49:28.262Z,84.30
2023-12-23T19:51:56.137Z,84.24
2023-12-23T19:54:24.396Z,84.31
2023-12-23T19:56:52.973Z,84.43
2023-12-23T19:59:21.813Z,84.52
2023-12-23T20:01:56.632Z,85.68
2023-12-23T20:04:28.380Z,87.18
2023-12-23T20:06:57.207Z,86.24
2023-12-23T20:09:28.748Z,85.26
2023-12-23T20:11:58.963Z,84.94
2023-12-23T20:14:28.886Z,84.77
2023-12-23T20:17:00.481Z,84.71
2023-12-23T20:19:28.910Z,84.64
2023-12-23T20:21:57.326Z,84.84
2023-12-23T20:24:25.600Z,84.91
2023-12-23T20:26:55.602Z,84.99
2023-12-23T20:29:24.698Z,85.06
2023-12-23T20:31:52.746Z,85.17
2023-12-23T20:34:20.910Z,85.17
2023-12-23T20:36:53.653Z,85.23
2023-12-23T20:39:27.998Z,85.50
2023-12-23T20:42:01.001Z,85.50
2023-12-23T20:44:32.667Z,85.59
2023-12-23T20:47:04.172Z,85.68
2023-12-23T20:49:35.966Z,85.71
2023-12-23T20:52:06.053Z,85.69
2023-12-23T20:54:35.166Z,85.73
2023-12-23T20:57:09.956Z,85.94
2023-12-23T20:59:39.835Z,85.95
2023-12-23T21:02:08.847Z,85.89
2023-12-23T21:04:40.242Z,85.87
2023-12-23T21:07:11.348Z,85.71
2023-12-23T21:09:39.904Z,85.77
2023-12-23T21:12:08.612Z,85.93
2023-12-23T21:14:36.576Z,85.74
2023-12-23T21:17:07.029Z,85.65
2023-12-23T21:19:35.310Z,85.77
2023-12-23T21:22:04.243Z,85.71
2023-12-23T21:24:32.242Z,85.68
2023-12-23T21:27:00.431Z,85.81
2023-12-23T21:29:28.619Z,85.78
2023-12-23T21:31:56.698Z,85.91
2023-12-23T21:34:25.080Z,85.83
2023-12-23T21:36:53.213Z,85.84
2023-12-23T21:39:21.322Z,85.72
2023-12-23T21:41:49.653Z,85.73
2023-12-23T21:44:17.913Z,85.83
2023-12-23T21:46:47.832Z,85.69
2023-12-23T21:49:16.132Z,85.81
2023-12-23T21:51:44.889Z,85.65
2023-12-23T21:54:12.824Z,85.65
2023-12-23T21:56:41.289Z,85.71
2023-12-23T21:59:09.481Z,85.69
2023-12-23T22:01:37.498Z,85.75
2023-12-23T22:04:05.614Z,85.70
2023-12-23T22:06:33.767Z,86.43
2023-12-23T22:09:01.948Z,86.42
2023-12-23T22:11:30.134Z,86.46
2023-12-23T22:13:58.706Z,86.21
2023-12-23T22:16:26.598Z,85.88
2023-12-23T22:18:54.945Z,85.99
2023-12-23T22:21:23.015Z,85.87
2023-12-23T22:23:51.092Z,85.84
2023-12-23T22:26:19.168Z,85.74
2023-12-23T22:28:47.614Z,85.70
2023-12-23T22:31:15.817Z,85.73
2023-12-23T22:33:44.316Z,85.75
2023-12-23T22:36:12.535Z,86.59
2023-12-23T22:38:41.232Z,87.26
2023-12-23T22:41:10.679Z,86.63
2023-12-23T22:43:39.245Z,86.21
2023-12-23T22:46:07.170Z,85.91
2023-12-23T22:48:35.723Z,85.82
2023-12-23T22:51:06.923Z,85.82
2023-12-23T22:53:38.043Z,85.63
2023-12-23T22:56:07.537Z,85.64
2023-12-23T22:58:35.662Z,85.65
2023-12-23T23:01:04.159Z,85.78
2023-12-23T23:03:32.445Z,85.72
2023-12-23T23:06:01.118Z,85.69
2023-12-23T23:08:29.299Z,85.68
2023-12-23T23:10:57.220Z,85.70
2023-12-23T23:13:25.282Z,85.81
2023-12-23T23:15:53.681Z,85.79
2023-12-23T23:18:22.120Z,85.83
2023-12-23T23:20:50.641Z,85.91
2023-12-23T23:23:18.826Z,86.02
2023-12-23T23:25:46.793Z,86.46
2023-12-23T23:28:14.889Z,86.60
2023-12-23T23:30:42.822Z,86.38
2023-12-23T23:33:11.359Z,86.30
2023-12-23T23:35:39.648Z,86.32
2023-12-23T23:38:07.786Z,86.28
2023-12-23T23:40:36.325Z,86.28
2023-12-23T23:43:04.446Z,86.28
2023-12-23T23:45:32.702Z,86.24
2023-12-23T23:48:01.232Z,86.32
2023-12-23T23:50:29.823Z,86.37
2023-12-23T23:52:57.958Z,86.33
2023-12-23T23:55:25.963Z,86.38
2023-12-23T23:57:53.902Z,86.54
